Aérodrome :
LOGIN :

S'inscrire | Disclaimer

   EN    FR    IT 

 










Légende :    VFR   VFR Marginal   IFR   IFR Intensif   IFR Très Intensif
Visi : 
Plafond : 
>= 8 km
>= 3000ft
5 à 8 km
1000 à 3000 ft
1500m à 5 km
500 à 1000 ft
800 à 1500m
200 à 500 ft
< 800m
< 200 ft
Symboles :   Orages  Brouillard  Fortes neiges  Fortes précipitations  Vent > 20 kt
SIGMETs :   Divers  Orages  Givrage  Turbulence  Onde Orograph.  Cendres Volcan.







- Altitude de l'aérodrome : 1674 ft
- Code IATA : BRN


LSZB - Bern Belp

DERNIER METAR :
  • 231150Z VRB03KT 9999 FEW130 14/07 Q1010 NOSIG

METARs EXPIRÉS :
  • 231120Z VRB03KT 9999 FEW130 13/07 Q1011 NOSIG
  • 231050Z VRB02KT 9999 FEW130 11/05 Q1011 NOSIG
  • 231020Z 24003KT 200V310 9999 SCT035 10/05 Q1011 NOSIG
  • 230950Z VRB02KT 9999 FEW130 09/04 Q1012 NOSIG
  • 230920Z VRB02KT 9999 SCT140 08/04 Q1012 NOSIG

TAF TAF LSZB
Valide du 23 à 12h jusqu'au 23 à 21h UTC


231125Z 2312/2321 VRB03KT 9999 FEW130
PROB40
TEMPO 2312/2318 06010KT CAVOK
ATIS : +41 22 417 40 76
Pas de NOTAMs connus pour ce terrain.



MET'MAP, la Météo Aéronautique d'un coup d'oeil ! - Copyright ORBIFLY Décembre 2007 - Disclaimer

ORBIFLY MET'MAP TEAM :

Programmation & Développement : Alexandra Zaïnal
Conception & Développement : Baudouin d'Aumeries
Co-Programmation & Développement : Marc-Olivier Méhu
Soutien technique & logistique : Manuel Goepfert

Contact : metmap@orbifly.com




SOURCES & CREDITS :

   NOAA